createdAt,value
2022-10-17T00:00:51.064Z,12.53
2022-10-17T00:03:18.352Z,12.46
2022-10-17T00:05:47.642Z,12.47
2022-10-17T00:08:17.258Z,12.39
2022-10-17T00:10:44.299Z,12.32
2022-10-17T00:13:12.688Z,12.32
2022-10-17T00:15:44.152Z,12.32
2022-10-17T00:18:11.521Z,12.27
2022-10-17T00:20:38.442Z,12.23
2022-10-17T00:23:05.415Z,12.24
2022-10-17T00:25:32.477Z,12.20
2022-10-17T00:27:59.616Z,12.19
2022-10-17T00:30:26.649Z,12.14
2022-10-17T00:32:53.662Z,12.13
2022-10-17T00:35:20.974Z,12.09
2022-10-17T00:37:48.759Z,12.04
2022-10-17T00:40:15.854Z,12.00
2022-10-17T00:42:43.026Z,11.95
2022-10-17T00:45:41.943Z,11.94
2022-10-17T00:48:13.399Z,11.92
2022-10-17T00:50:43.342Z,11.91
2022-10-17T00:53:10.911Z,11.89
2022-10-17T00:55:51.003Z,11.86
2022-10-17T00:58:18.264Z,11.80
2022-10-17T01:00:47.433Z,11.80
2022-10-17T01:03:16.463Z,11.78
2022-10-17T01:05:43.743Z,11.72
2022-10-17T01:08:12.136Z,11.71
2022-10-17T01:10:57.229Z,11.70
2022-10-17T01:13:51.441Z,11.65
2022-10-17T01:16:39.241Z,11.65
2022-10-17T01:19:30.723Z,11.64
2022-10-17T01:22:12.285Z,11.66
2022-10-17T01:25:14.680Z,11.64
2022-10-17T01:27:51.227Z,11.59
2022-10-17T01:30:43.273Z,11.58
2022-10-17T01:33:22.569Z,11.63
2022-10-17T01:36:01.835Z,11.61
2022-10-17T01:38:44.394Z,11.56
2022-10-17T01:41:47.411Z,11.57
2022-10-17T01:44:39.770Z,11.53
2022-10-17T01:47:10.942Z,11.52
2022-10-17T01:49:41.158Z,11.46
2022-10-17T01:52:16.846Z,11.46
2022-10-17T01:54:52.445Z,11.47
2022-10-17T01:57:29.887Z,11.46
2022-10-17T01:59:58.269Z,11.44
2022-10-17T02:02:27.084Z,11.45
2022-10-17T02:04:57.471Z,11.49
2022-10-17T02:07:24.628Z,11.45
2022-10-17T02:09:52.985Z,11.40
2022-10-17T02:12:38.739Z,11.39
2022-10-17T02:15:18.086Z,11.42
2022-10-17T02:17:45.459Z,11.39
2022-10-17T02:20:29.687Z,11.35
2022-10-17T02:23:01.126Z,11.32
2022-10-17T02:25:49.077Z,11.28
2022-10-17T02:28:22.000Z,11.24
2022-10-17T02:30:54.695Z,11.24
2022-10-17T02:33:39.326Z,11.22
2022-10-17T02:36:15.237Z,11.28
2022-10-17T02:38:44.622Z,11.20
2022-10-17T02:41:15.308Z,11.18
2022-10-17T02:43:45.506Z,11.21
2022-10-17T02:46:21.277Z,11.20
2022-10-17T02:49:03.532Z,11.17
2022-10-17T02:51:47.837Z,11.11
2022-10-17T02:54:24.657Z,11.16
2022-10-17T02:57:01.275Z,11.17
2022-10-17T02:59:30.915Z,11.18
2022-10-17T03:01:57.960Z,11.14
2022-10-17T03:04:24.954Z,11.08
2022-10-17T03:06:52.047Z,11.01
2022-10-17T03:09:19.201Z,11.01
2022-10-17T03:11:46.215Z,11.01
2022-10-17T03:14:13.170Z,10.97
2022-10-17T03:16:40.954Z,10.97
2022-10-17T03:19:08.073Z,10.94
2022-10-17T03:21:37.571Z,10.95
2022-10-17T03:24:06.055Z,10.94
2022-10-17T03:26:33.162Z,10.98
2022-10-17T03:29:00.252Z,10.99
2022-10-17T03:31:29.244Z,10.99
2022-10-17T03:33:56.961Z,10.93
2022-10-17T03:36:24.001Z,10.93
2022-10-17T03:38:54.815Z,10.89
2022-10-17T03:41:22.813Z,10.86
2022-10-17T03:43:49.909Z,10.82
2022-10-17T03:49:04.835Z,10.82
2022-10-17T03:51:36.406Z,10.81
2022-10-17T03:54:08.706Z,10.78
2022-10-17T03:56:35.795Z,10.79
2022-10-17T03:59:06.844Z,10.82
2022-10-17T04:01:36.856Z,10.79
2022-10-17T04:04:03.947Z,10.84
2022-10-17T04:06:33.771Z,10.81
2022-10-17T04:09:03.841Z,10.77
2022-10-17T04:11:41.434Z,10.76
2022-10-17T04:14:10.067Z,10.76
2022-10-17T04:16:39.313Z,10.76
2022-10-17T04:19:13.941Z,10.76
2022-10-17T04:21:44.894Z,10.73
2022-10-17T04:24:12.503Z,10.78
2022-10-17T04:26:55.053Z,10.93
2022-10-17T04:29:25.525Z,10.94
2022-10-17T04:31:56.370Z,10.98
2022-10-17T04:34:39.607Z,10.88
2022-10-17T04:37:06.669Z,11.05
2022-10-17T04:39:35.127Z,11.10
2022-10-17T04:42:03.748Z,11.07
2022-10-17T04:44:31.581Z,10.99
2022-10-17T04:46:59.379Z,10.97
2022-10-17T04:49:26.955Z,10.89
2022-10-17T04:51:58.679Z,10.81
2022-10-17T04:54:40.508Z,10.75
2022-10-17T04:57:09.996Z,10.73
2022-10-17T04:59:37.460Z,10.80
2022-10-17T05:02:24.725Z,10.72
2022-10-17T05:04:52.181Z,10.74
2022-10-17T05:07:20.584Z,10.73
2022-10-17T05:10:00.332Z,10.68
2022-10-17T05:12:27.770Z,10.76
2022-10-17T05:14:55.041Z,10.72
2022-10-17T05:17:24.892Z,10.80
2022-10-17T05:19:51.867Z,10.73
2022-10-17T05:22:19.493Z,10.72
2022-10-17T05:24:46.997Z,10.71
2022-10-17T05:27:14.069Z,10.68
2022-10-17T05:29:41.083Z,10.63
2022-10-17T05:32:18.521Z,10.70
2022-10-17T05:34:45.573Z,10.72
2022-10-17T05:37:13.559Z,10.73
2022-10-17T05:39:46.781Z,10.75
2022-10-17T05:42:16.365Z,10.82
2022-10-17T05:44:43.429Z,10.90
2022-10-17T05:47:10.659Z,10.96
2022-10-17T05:49:46.284Z,11.00
2022-10-17T05:52:16.941Z,11.11
2022-10-17T05:55:23.568Z,11.08
2022-10-17T05:57:54.040Z,11.04
2022-10-17T06:00:23.614Z,11.08
2022-10-17T06:02:57.319Z,11.24
2022-10-17T06:05:24.984Z,11.27
2022-10-17T06:07:56.984Z,11.43
2022-10-17T06:10:27.326Z,11.53
2022-10-17T06:12:55.282Z,11.59
2022-10-17T06:15:22.343Z,11.75
2022-10-17T06:17:56.039Z,11.86
2022-10-17T06:20:23.056Z,11.89
2022-10-17T06:22:50.277Z,12.06
2022-10-17T06:25:26.899Z,12.10
2022-10-17T06:30:41.641Z,12.07
2022-10-17T06:33:08.687Z,12.05
2022-10-17T06:35:36.122Z,12.25
2022-10-17T06:38:04.583Z,12.39
2022-10-17T06:40:32.854Z,12.48
2022-10-17T06:43:00.135Z,12.29
2022-10-17T06:48:38.190Z,12.58
2022-10-17T06:51:12.016Z,12.79
2022-10-17T06:53:48.031Z,12.88
2022-10-17T06:56:50.583Z,12.99
2022-10-17T06:59:20.314Z,13.11
2022-10-17T07:01:56.805Z,13.30
2022-10-17T07:04:25.378Z,13.21
2022-10-17T07:06:52.441Z,13.24
2022-10-17T07:09:23.061Z,13.22
2022-10-17T07:11:50.787Z,13.35
2022-10-17T07:14:19.114Z,13.49
2022-10-17T07:16:47.091Z,13.52
2022-10-17T07:19:23.374Z,13.63
2022-10-17T07:21:51.057Z,13.77
2022-10-17T07:24:18.157Z,13.67
2022-10-17T07:26:49.064Z,13.87
2022-10-17T07:29:16.604Z,13.96
2022-10-17T07:31:49.101Z,13.90
2022-10-17T07:34:16.366Z,14.14
2022-10-17T07:36:44.065Z,14.23
2022-10-17T07:39:13.317Z,14.27
2022-10-17T07:41:40.901Z,14.33
2022-10-17T07:44:08.368Z,14.45
2022-10-17T07:46:41.608Z,14.50
2022-10-17T07:49:08.911Z,14.67
2022-10-17T07:51:36.168Z,14.67
2022-10-17T07:54:06.045Z,14.71
2022-10-17T07:56:33.462Z,14.85
2022-10-17T07:59:02.716Z,14.93
2022-10-17T08:01:32.353Z,15.03
2022-10-17T08:03:59.370Z,15.05
2022-10-17T08:06:26.576Z,15.16
2022-10-17T08:08:53.532Z,15.30
2022-10-17T08:11:21.440Z,15.38
2022-10-17T08:13:48.470Z,15.48
2022-10-17T08:16:15.739Z,15.69
2022-10-17T08:18:43.775Z,15.76
2022-10-17T08:21:13.212Z,15.87
2022-10-17T08:23:40.731Z,15.85
2022-10-17T08:26:10.882Z,16.05
2022-10-17T08:28:39.772Z,16.17
2022-10-17T08:31:13.017Z,16.23
2022-10-17T08:33:40.947Z,16.67
2022-10-17T08:36:09.421Z,16.65
2022-10-17T08:38:40.371Z,16.67
2022-10-17T08:41:25.715Z,16.70
2022-10-17T08:44:21.340Z,16.67
2022-10-17T08:46:51.913Z,16.77
2022-10-17T08:49:48.163Z,16.92
2022-10-17T08:52:25.777Z,16.92
2022-10-17T08:54:53.253Z,17.18
2022-10-17T08:57:22.784Z,17.15
2022-10-17T08:59:52.599Z,17.17
2022-10-17T09:02:30.811Z,17.36
2022-10-17T09:05:29.022Z,17.36
2022-10-17T09:08:24.848Z,17.54
2022-10-17T09:10:54.708Z,17.47
2022-10-17T09:13:27.803Z,17.46
2022-10-17T09:16:30.124Z,17.71
2022-10-17T09:19:12.705Z,17.86
2022-10-17T09:21:39.720Z,17.97
2022-10-17T09:24:16.345Z,17.94
2022-10-17T09:26:46.022Z,18.02
2022-10-17T09:29:30.840Z,18.18
2022-10-17T09:32:10.530Z,18.29
2022-10-17T09:34:37.763Z,18.41
2022-10-17T09:37:13.176Z,18.54
2022-10-17T09:39:42.440Z,18.56
2022-10-17T09:42:14.772Z,18.63
2022-10-17T09:45:15.972Z,18.59
2022-10-17T09:48:02.074Z,18.45
2022-10-17T09:50:31.838Z,18.56
2022-10-17T09:53:15.127Z,18.70
2022-10-17T09:55:45.425Z,18.72
2022-10-17T09:58:12.730Z,18.79
2022-10-17T10:00:45.340Z,18.77
2022-10-17T10:03:18.239Z,18.80
2022-10-17T10:06:18.907Z,18.64
2022-10-17T10:08:58.796Z,18.70
2022-10-17T10:11:45.714Z,18.95
2022-10-17T10:14:21.518Z,18.98
2022-10-17T10:16:50.197Z,18.96
2022-10-17T10:19:34.798Z,19.15
2022-10-17T10:22:04.530Z,19.05
2022-10-17T10:24:32.063Z,19.02
2022-10-17T10:27:03.066Z,18.92
2022-10-17T10:29:41.917Z,18.86
2022-10-17T10:32:30.909Z,19.07
2022-10-17T10:35:16.518Z,19.20
2022-10-17T10:37:48.637Z,19.16
2022-10-17T10:40:32.936Z,18.97
2022-10-17T10:43:05.221Z,19.21
2022-10-17T10:45:53.853Z,19.36
2022-10-17T10:48:50.836Z,19.52
2022-10-17T10:51:23.560Z,19.35
2022-10-17T10:54:05.512Z,19.39
2022-10-17T10:56:45.074Z,19.60
2022-10-17T10:59:11.925Z,19.76
2022-10-17T11:01:53.663Z,19.68
2022-10-17T11:04:23.700Z,19.56
2022-10-17T11:06:58.539Z,19.54
2022-10-17T11:10:10.523Z,19.58
2022-10-17T11:12:49.628Z,19.70
2022-10-17T11:15:37.118Z,19.58
2022-10-17T11:18:08.552Z,19.62
2022-10-17T11:20:58.397Z,19.70
2022-10-17T11:24:06.857Z,19.73
2022-10-17T11:26:50.842Z,19.72
2022-10-17T11:29:17.879Z,19.61
2022-10-17T11:31:50.634Z,19.82
2022-10-17T11:34:27.810Z,19.80
2022-10-17T11:36:59.878Z,19.89
2022-10-17T11:39:42.311Z,19.79
2022-10-17T11:42:16.425Z,20.03
2022-10-17T11:44:44.843Z,20.05
2022-10-17T11:47:14.833Z,19.97
2022-10-17T11:49:50.838Z,20.03
2022-10-17T11:52:55.560Z,20.20
2022-10-17T11:55:26.278Z,20.16
2022-10-17T11:57:59.361Z,20.21
2022-10-17T12:00:50.846Z,20.37
2022-10-17T12:03:36.628Z,20.29
2022-10-17T12:06:29.191Z,20.23
2022-10-17T12:09:04.383Z,20.09
2022-10-17T12:11:34.889Z,20.01
2022-10-17T12:14:05.880Z,20.19
2022-10-17T12:16:38.704Z,20.16
2022-10-17T12:19:11.951Z,20.27
2022-10-17T12:22:14.400Z,20.55
2022-10-17T12:24:44.518Z,20.65
2022-10-17T12:27:30.213Z,20.82
2022-10-17T12:30:04.507Z,20.98
2022-10-17T12:32:46.911Z,20.78
2022-10-17T12:35:24.938Z,20.59
2022-10-17T12:37:52.475Z,20.66
2022-10-17T12:40:35.339Z,20.77
2022-10-17T12:43:23.622Z,20.95
2022-10-17T12:45:52.838Z,20.64
2022-10-17T12:48:34.998Z,20.75
2022-10-17T12:53:59.430Z,20.84
2022-10-17T12:56:46.119Z,20.78
2022-10-17T12:59:29.271Z,21.09
2022-10-17T13:02:01.793Z,21.07
2022-10-17T13:04:30.790Z,21.18
2022-10-17T13:07:00.876Z,21.26
2022-10-17T13:09:42.726Z,21.35
2022-10-17T13:12:15.692Z,21.37
2022-10-17T13:14:43.718Z,21.30
2022-10-17T13:17:28.947Z,21.24
2022-10-17T13:19:56.844Z,21.14
2022-10-17T13:22:27.448Z,21.10
2022-10-17T13:25:14.202Z,21.43
2022-10-17T13:27:41.448Z,21.39
2022-10-17T13:30:29.412Z,21.35
2022-10-17T13:33:00.030Z,21.32
2022-10-17T13:35:58.985Z,21.36
2022-10-17T13:38:27.677Z,21.42
2022-10-17T13:41:01.682Z,21.23
2022-10-17T13:43:38.942Z,21.22
2022-10-17T13:46:32.550Z,21.44
2022-10-17T13:48:54.588Z,21.43
2022-10-17T13:51:22.392Z,21.39
2022-10-17T13:53:49.476Z,21.30
2022-10-17T13:56:30.112Z,21.35
2022-10-17T13:59:14.274Z,21.43
2022-10-17T14:01:41.604Z,21.29
2022-10-17T14:04:19.287Z,21.28
2022-10-17T14:06:51.198Z,21.32
2022-10-17T14:09:30.912Z,21.34
2022-10-17T14:12:13.006Z,21.27
2022-10-17T14:15:09.364Z,21.32
2022-10-17T14:17:34.560Z,21.48
2022-10-17T14:20:34.497Z,21.45
2022-10-17T14:23:17.442Z,21.34
2022-10-17T14:25:40.968Z,21.25
2022-10-17T14:28:09.680Z,21.29
2022-10-17T14:30:57.570Z,21.27
2022-10-17T14:33:30.882Z,21.34
2022-10-17T14:36:00.379Z,21.36
2022-10-17T14:38:29.847Z,21.46
2022-10-17T14:41:40.817Z,21.44
2022-10-17T14:43:56.306Z,21.43
2022-10-17T14:46:23.707Z,21.40
2022-10-17T14:49:03.267Z,21.34
2022-10-17T14:51:40.017Z,21.32
2022-10-17T14:54:24.970Z,21.31
2022-10-17T14:56:54.076Z,21.38
2022-10-17T14:59:52.834Z,21.36
2022-10-17T15:02:13.264Z,21.29
2022-10-17T15:04:40.552Z,21.21
2022-10-17T15:07:07.953Z,21.12
2022-10-17T15:09:34.940Z,21.05
2022-10-17T15:12:04.283Z,21.09
2022-10-17T15:14:31.620Z,21.04
2022-10-17T15:16:58.712Z,21.11
2022-10-17T15:19:25.765Z,21.07
2022-10-17T15:21:52.681Z,21.05
2022-10-17T15:24:19.648Z,20.88
2022-10-17T15:26:46.639Z,20.77
2022-10-17T15:29:15.673Z,20.69
2022-10-17T15:31:42.737Z,20.54
2022-10-17T15:34:09.752Z,20.44
2022-10-17T15:36:40.611Z,20.28
2022-10-17T15:39:10.049Z,20.18
2022-10-17T15:41:37.084Z,20.05
2022-10-17T15:44:04.302Z,19.93
2022-10-17T15:46:35.146Z,19.81
2022-10-17T15:49:04.984Z,19.68
2022-10-17T15:51:31.943Z,19.59
2022-10-17T15:54:01.639Z,19.47
2022-10-17T15:56:31.970Z,19.31
2022-10-17T15:58:59.235Z,19.19
2022-10-17T16:01:29.794Z,19.11
2022-10-17T16:03:57.776Z,19.01
2022-10-17T16:06:24.979Z,18.90
2022-10-17T16:08:52.735Z,18.78
2022-10-17T16:11:36.357Z,18.59
2022-10-17T16:14:06.962Z,18.40
2022-10-17T16:16:34.335Z,18.30
2022-10-17T16:19:02.393Z,18.25
2022-10-17T16:21:32.768Z,18.25
2022-10-17T16:24:00.798Z,18.18
2022-10-17T16:26:28.288Z,18.11
2022-10-17T16:28:57.554Z,18.20
2022-10-17T16:31:29.450Z,18.45
2022-10-17T16:33:58.289Z,18.62
2022-10-17T16:36:25.587Z,18.73
2022-10-17T16:38:54.266Z,18.66
2022-10-17T16:41:25.356Z,18.59
2022-10-17T16:43:54.352Z,18.39
2022-10-17T16:46:22.291Z,18.42
2022-10-17T16:48:49.598Z,18.32
2022-10-17T16:51:19.045Z,18.28
2022-10-17T16:53:50.169Z,18.34
2022-10-17T16:56:20.339Z,18.27
2022-10-17T16:58:48.272Z,18.09
2022-10-17T17:01:21.092Z,17.96
2022-10-17T17:03:48.344Z,17.96
2022-10-17T17:06:20.895Z,17.82
2022-10-17T17:08:48.161Z,17.74
2022-10-17T17:11:20.018Z,17.56
2022-10-17T17:13:47.523Z,17.48
2022-10-17T17:16:21.612Z,17.32
2022-10-17T17:18:55.089Z,17.22
2022-10-17T17:21:22.077Z,17.14
2022-10-17T17:23:49.087Z,17.07
2022-10-17T17:26:19.495Z,16.96
2022-10-17T17:28:47.585Z,16.88
2022-10-17T17:31:23.302Z,16.84
2022-10-17T17:33:51.694Z,16.89
2022-10-17T17:36:22.161Z,16.82
2022-10-17T17:38:50.443Z,16.82
2022-10-17T17:41:19.092Z,16.70
2022-10-17T17:43:47.590Z,16.66
2022-10-17T17:46:17.099Z,16.68
2022-10-17T17:48:46.749Z,16.64
2022-10-17T17:51:17.236Z,16.44
2022-10-17T17:53:44.979Z,16.27
2022-10-17T17:56:18.002Z,16.23
2022-10-17T17:58:48.357Z,16.13
2022-10-17T18:01:20.626Z,16.07
2022-10-17T18:03:49.411Z,15.97
2022-10-17T18:06:17.175Z,15.94
2022-10-17T18:08:46.176Z,15.88
2022-10-17T18:11:15.896Z,15.82
2022-10-17T18:13:45.309Z,15.81
2022-10-17T18:16:13.407Z,15.85
2022-10-17T18:18:42.155Z,15.81
2022-10-17T18:21:10.841Z,15.82
2022-10-17T18:23:41.808Z,15.74
2022-10-17T18:26:10.748Z,15.67
2022-10-17T18:28:39.491Z,15.59
2022-10-17T18:31:07.679Z,15.51
2022-10-17T18:33:35.268Z,15.51
2022-10-17T18:36:07.182Z,15.39
2022-10-17T18:38:34.865Z,15.32
2022-10-17T18:41:04.333Z,15.32
2022-10-17T18:43:33.603Z,15.25
2022-10-17T18:46:15.293Z,15.16
2022-10-17T18:48:44.666Z,15.10
2022-10-17T18:51:13.149Z,15.04
2022-10-17T18:53:48.171Z,14.97
2022-10-17T18:56:15.851Z,14.85
2022-10-17T18:58:43.532Z,14.80
2022-10-17T19:01:15.577Z,14.80
2022-10-17T19:03:44.262Z,14.73
2022-10-17T19:06:14.067Z,14.70
2022-10-17T19:08:41.970Z,14.68
2022-10-17T19:11:12.397Z,14.69
2022-10-17T19:13:39.836Z,14.68
2022-10-17T19:16:13.788Z,14.84
2022-10-17T19:18:41.627Z,15.20
2022-10-17T19:21:11.231Z,15.49
2022-10-17T19:23:39.071Z,15.60
2022-10-17T19:26:10.293Z,15.67
2022-10-17T19:28:39.580Z,15.58
2022-10-17T19:31:07.253Z,15.64
2022-10-17T19:33:35.105Z,15.91
2022-10-17T19:36:05.436Z,15.88
2022-10-17T19:38:32.663Z,15.99
2022-10-17T19:43:47.218Z,16.00
2022-10-17T19:46:17.931Z,16.05
2022-10-17T19:48:45.332Z,16.07
2022-10-17T19:51:14.723Z,16.14
2022-10-17T19:53:42.621Z,16.00
2022-10-17T19:56:10.836Z,16.01
2022-10-17T19:58:44.876Z,16.12
2022-10-17T20:01:20.139Z,16.19
2022-10-17T20:03:47.602Z,16.26
2022-10-17T20:06:15.257Z,16.26
2022-10-17T20:08:42.656Z,16.10
2022-10-17T20:11:22.170Z,16.01
2022-10-17T20:14:00.345Z,15.84
2022-10-17T20:16:31.662Z,15.75
2022-10-17T20:19:05.312Z,15.80
2022-10-17T20:21:35.074Z,15.76
2022-10-17T20:24:04.553Z,15.65
2022-10-17T20:26:39.627Z,15.72
2022-10-17T20:29:11.719Z,15.70
2022-10-17T20:31:40.644Z,15.58
2022-10-17T20:34:25.004Z,15.47
2022-10-17T20:36:51.968Z,15.52
2022-10-17T20:39:20.669Z,15.55
2022-10-17T20:41:48.109Z,15.52
2022-10-17T20:44:15.204Z,15.63
2022-10-17T20:46:48.748Z,15.54
2022-10-17T20:49:24.900Z,15.53
2022-10-17T20:51:52.060Z,15.45
2022-10-17T20:54:19.048Z,15.36
2022-10-17T20:56:45.992Z,15.39
2022-10-17T20:59:16.435Z,15.39
2022-10-17T21:01:45.110Z,15.20
2022-10-17T21:04:45.305Z,15.18
2022-10-17T21:06:59.912Z,15.25
2022-10-17T21:09:26.907Z,15.06
2022-10-17T21:11:55.871Z,14.91
2022-10-17T21:14:24.515Z,14.87
2022-10-17T21:16:54.811Z,14.86
2022-10-17T21:19:22.084Z,14.83
2022-10-17T21:21:49.174Z,14.76
2022-10-17T21:24:19.373Z,14.60
2022-10-17T21:26:50.199Z,14.48
2022-10-17T21:29:17.208Z,14.33
2022-10-17T21:31:45.294Z,14.29
2022-10-17T21:34:17.759Z,14.26
2022-10-17T21:36:45.227Z,14.27
2022-10-17T21:39:18.269Z,14.19
2022-10-17T21:41:45.437Z,14.13
2022-10-17T21:44:18.218Z,14.10
2022-10-17T21:46:46.825Z,14.01
2022-10-17T21:49:16.799Z,13.97
2022-10-17T21:51:44.970Z,13.91
2022-10-17T21:54:12.238Z,13.84
2022-10-17T21:56:39.738Z,13.89
2022-10-17T21:59:07.331Z,14.00
2022-10-17T22:01:37.417Z,13.88
2022-10-17T22:04:06.718Z,13.80
2022-10-17T22:06:40.087Z,13.69
2022-10-17T22:09:15.928Z,13.61
2022-10-17T22:11:46.805Z,13.55
2022-10-17T22:14:16.792Z,13.53
2022-10-17T22:16:45.367Z,13.56
2022-10-17T22:19:14.764Z,13.46
2022-10-17T22:21:41.894Z,13.40
2022-10-17T22:24:11.851Z,13.33
2022-10-17T22:26:39.740Z,13.31
2022-10-17T22:29:08.186Z,13.26
2022-10-17T22:31:36.470Z,13.21
2022-10-17T22:34:05.512Z,13.20
2022-10-17T22:36:33.715Z,13.11
2022-10-17T22:39:01.041Z,13.05
2022-10-17T22:41:28.142Z,12.98
2022-10-17T22:43:55.149Z,13.02
2022-10-17T22:46:23.776Z,12.96
2022-10-17T22:48:50.783Z,12.91
2022-10-17T22:51:17.838Z,12.84
2022-10-17T22:53:45.135Z,12.80
2022-10-17T22:56:15.204Z,12.74
2022-10-17T22:58:42.668Z,12.73
2022-10-17T23:01:15.816Z,12.65
2022-10-17T23:03:43.066Z,12.67
2022-10-17T23:06:10.392Z,12.58
2022-10-17T23:08:38.105Z,12.63
2022-10-17T23:11:05.915Z,12.58
2022-10-17T23:13:32.977Z,12.56
2022-10-17T23:16:00.047Z,12.46
2022-10-17T23:18:27.218Z,12.45
2022-10-17T23:20:54.448Z,12.45
2022-10-17T23:23:22.316Z,12.41
2022-10-17T23:25:50.017Z,12.40
2022-10-17T23:28:17.433Z,12.40
2022-10-17T23:30:44.707Z,12.38
2022-10-17T23:33:13.560Z,12.33
2022-10-17T23:35:41.057Z,12.30
2022-10-17T23:38:08.234Z,12.31
2022-10-17T23:40:35.525Z,12.26
2022-10-17T23:43:03.479Z,12.21
2022-10-17T23:45:34.659Z,12.17
2022-10-17T23:48:05.282Z,12.19
2022-10-17T23:50:32.225Z,12.12
2022-10-17T23:52:59.244Z,12.04
2022-10-17T23:55:28.212Z,11.99
2022-10-17T23:57:55.120Z,11.94
